LRBC/BCM METAR and TAF weather

Enter ICAO airport designator
Station Type Date Time Source
LRBC METAR 2019/08/17 11:30 UTC NOAA

LRBC 171130Z 01010KT 350V050 9999 SCT065 25/08 Q1015


Station Type Date Time Source
LRBC Decoded METAR 2019/08/17 11:30 UTC NOAA

Station name not available
Aug 17, 2019 - 07:30 AM EDT / 2019.08.17 1130 UTC
Wind: from the N (010 degrees) at 12 MPH (10 KT) (direction variable):0
Visibility: greater than 7 mile(s):0
Sky conditions: partly cloudy
Temperature: 77 F (25 C)
Dew Point: 46 F (8 C)
Relative Humidity: 33%
Pressure (altimeter): 29.97 in. Hg (1015 hPa)
ob: LRBC 171130Z 01010KT 350V050 9999 SCT065 25/08 Q1015
cycle: 11

Station Type Date Time Source
LRBC TAF 2010/08/31 20:30 UTC NOAA

TAF LRBC 312030Z 3121/0203 CNL

Example: see airport list